Impacts TAF Board
For situational awareness. Not to be used for flight planning purposes.
IDs:

KBOS - Boston/Logan Intl, MA, US

Issued at 0538 UTC 21 Sep 2018
Updated at 0806 UTC 21 Sep 2018
Potential Impact None Slight Moderate High
Time0754Z 21/09Z 21/10Z 21/11Z 21/12Z 21/13Z 21/14Z 21/15Z 21/16Z 21/17Z 21/18Z 21/19Z 21/20Z 21/21Z>>
Type OBS PRVL PRVL PRVL PRVL PRVL PRVL PRVL PRVL PRVL PRVL PRVL PRVL PRVL
VIS 10 >6 >6 >6 >6 >6 >6 >6 >6 >6 >6 >6 >6 >6
CIG 55 110 110 110 110 110 110 90 90 90 90 90 -- --
Cover OVC BKN BKN BKN BKN BKN BKN BKN BKN BKN BKN BKN SCT SCT
FltCat VFR VFR VFR VFR VFR VFR VFR VFR VFR VFR VFR VFR VFR VFR
WX -- -- -- -- -- -- -- -- -- -- -- -- -- --
WDir 150 130 130 130 130 130 130 170 170 170 170 170 180 180
WSpd 6 4 4 4 4 4 4 10 10 10 10 10 13 13
WGst -- -- -- -- -- -- -- -- -- -- -- -- -- --
Raw TAF
KBOS 210538Z 2106/2212 13004KT P6SM SCT050 BKN110
  FM211500 17010KT P6SM BKN090
  FM212000 18013KT P6SM SCT090
  FM212200 20017G25KT P6SM BKN060
  FM220700 23015G27KT P6SM VCSH BKN015
  FM221100 28014G24KT P6SM BKN250


Raw METAR
KBOS 210754Z 15006KT 10SM BKN055 OVC140 17/12 A3029 RMK A02 SLP256 T01670122
KBOS 210654Z 16004KT 10SM OVC055 17/12 A3029 RMK AO2 SLP257 T01670122
KBOS 210554Z 15004KT 10SM OVC050 17/12 A3030 RMK AO2 SLP260 T01670122 10183 20167 50003

METAR Board
Radar Display
Forecast Discussion
For situational awareness. Not to be used for flight planning purposes.